sensor_id;sensor_type;location;lat;lon;timestamp;pressure;altitude;pressure_sealevel;temperature;humidity
51526;BME280;37611;51.794;21.590;2023-02-12T00:02:17;101102.56;;;1.83;100.00
51526;BME280;37611;51.794;21.590;2023-02-12T00:06:19;101109.58;;;1.73;100.00
51526;BME280;37611;51.794;21.590;2023-02-12T00:10:21;101115.88;;;1.63;100.00
51526;BME280;37611;51.794;21.590;2023-02-12T00:14:23;101124.13;;;1.57;100.00
51526;BME280;37611;51.794;21.590;2023-02-12T00:18:24;101142.02;;;1.54;100.00
51526;BME280;37611;51.794;21.590;2023-02-12T00:22:26;101154.55;;;1.52;100.00
51526;BME280;37611;51.794;21.590;2023-02-12T00:26:30;101161.96;;;1.47;100.00
51526;BME280;37611;51.794;21.590;2023-02-12T00:30:31;101171.02;;;1.45;100.00
51526;BME280;37611;51.794;21.590;2023-02-12T00:34:33;101181.04;;;1.41;100.00
51526;BME280;37611;51.794;21.590;2023-02-12T00:38:35;101188.94;;;1.30;100.00
51526;BME280;37611;51.794;21.590;2023-02-12T00:42:36;101195.48;;;1.22;100.00
51526;BME280;37611;51.794;21.590;2023-02-12T00:46:38;101198.80;;;1.17;100.00
51526;BME280;37611;51.794;21.590;2023-02-12T00:50:43;101206.46;;;1.07;100.00
51526;BME280;37611;51.794;21.590;2023-02-12T00:54:45;101215.05;;;1.03;100.00
51526;BME280;37611;51.794;21.590;2023-02-12T00:58:47;101207.07;;;1.04;100.00
51526;BME280;37611;51.794;21.590;2023-02-12T01:02:49;101211.63;;;1.03;100.00
51526;BME280;37611;51.794;21.590;2023-02-12T01:06:50;101210.08;;;1.03;100.00
51526;BME280;37611;51.794;21.590;2023-02-12T01:10:58;101219.22;;;1.03;100.00
51526;BME280;37611;51.794;21.590;2023-02-12T01:15:00;101231.02;;;1.01;100.00
51526;BME280;37611;51.794;21.590;2023-02-12T01:19:03;101243.58;;;0.97;100.00
51526;BME280;37611;51.794;21.590;2023-02-12T01:23:05;101252.35;;;0.93;100.00
51526;BME280;37611;51.794;21.590;2023-02-12T01:27:09;101258.71;;;0.89;100.00
51526;BME280;37611;51.794;21.590;2023-02-12T01:31:12;101261.05;;;0.87;100.00
51526;BME280;37611;51.794;21.590;2023-02-12T01:35:14;101266.72;;;0.88;100.00
51526;BME280;37611;51.794;21.590;2023-02-12T01:39:16;101274.66;;;0.92;100.00
51526;BME280;37611;51.794;21.590;2023-02-12T01:43:18;101280.48;;;0.97;100.00
51526;BME280;37611;51.794;21.590;2023-02-12T01:47:20;101277.09;;;1.00;100.00
51526;BME280;37611;51.794;21.590;2023-02-12T01:51:23;101286.15;;;1.02;100.00
51526;BME280;37611;51.794;21.590;2023-02-12T01:55:25;101285.75;;;1.04;100.00
51526;BME280;37611;51.794;21.590;2023-02-12T01:59:28;101281.46;;;0.99;100.00
51526;BME280;37611;51.794;21.590;2023-02-12T02:03:31;101287.75;;;0.92;100.00
51526;BME280;37611;51.794;21.590;2023-02-12T02:07:34;101288.64;;;0.87;100.00
51526;BME280;37611;51.794;21.590;2023-02-12T02:11:36;101294.54;;;0.86;100.00
51526;BME280;37611;51.794;21.590;2023-02-12T02:15:59;101308.40;;;0.89;100.00
51526;BME280;37611;51.794;21.590;2023-02-12T02:24:53;101333.91;;;0.80;100.00
51526;BME280;37611;51.794;21.590;2023-02-12T02:38:04;101357.13;;;0.58;100.00
51526;BME280;37611;51.794;21.590;2023-02-12T02:42:13;101363.05;;;0.51;100.00
51526;BME280;37611;51.794;21.590;2023-02-12T02:46:19;101374.12;;;0.50;100.00
51526;BME280;37611;51.794;21.590;2023-02-12T02:50:24;101383.20;;;0.46;100.00
51526;BME280;37611;51.794;21.590;2023-02-12T02:54:35;101391.11;;;0.47;100.00
51526;BME280;37611;51.794;21.590;2023-02-12T02:58:42;101400.55;;;0.48;100.00
51526;BME280;37611;51.794;21.590;2023-02-12T03:02:49;101403.83;;;0.48;100.00
51526;BME280;37611;51.794;21.590;2023-02-12T03:07:07;101423.17;;;0.47;100.00
51526;BME280;37611;51.794;21.590;2023-02-12T03:11:20;101436.78;;;0.47;100.00
51526;BME280;37611;51.794;21.590;2023-02-12T03:15:33;101451.70;;;0.44;100.00
51526;BME280;37611;51.794;21.590;2023-02-12T03:19:43;101467.52;;;0.40;100.00
51526;BME280;37611;51.794;21.590;2023-02-12T03:23:54;101466.39;;;0.43;100.00
51526;BME280;37611;51.794;21.590;2023-02-12T03:28:20;101481.52;;;0.49;100.00
51526;BME280;37611;51.794;21.590;2023-02-12T03:32:34;101485.30;;;0.49;100.00
51526;BME280;37611;51.794;21.590;2023-02-12T03:37:05;101496.34;;;0.49;100.00
51526;BME280;37611;51.794;21.590;2023-02-12T03:41:30;101514.34;;;0.47;100.00
51526;BME280;37611;51.794;21.590;2023-02-12T03:45:37;101522.69;;;0.44;100.00
51526;BME280;37611;51.794;21.590;2023-02-12T03:50:01;101530.20;;;0.42;100.00
51526;BME280;37611;51.794;21.590;2023-02-12T03:54:08;101539.78;;;0.38;100.00
51526;BME280;37611;51.794;21.590;2023-02-12T03:58:18;101548.50;;;0.35;100.00
51526;BME280;37611;51.794;21.590;2023-02-12T04:02:21;101551.67;;;0.38;100.00
51526;BME280;37611;51.794;21.590;2023-02-12T04:06:26;101558.79;;;0.42;100.00
51526;BME280;37611;51.794;21.590;2023-02-12T04:10:34;101560.34;;;0.47;100.00
51526;BME280;37611;51.794;21.590;2023-02-12T04:15:04;101568.50;;;0.51;100.00
51526;BME280;37611;51.794;21.590;2023-02-12T04:19:09;101566.77;;;0.45;100.00
51526;BME280;37611;51.794;21.590;2023-02-12T04:28:00;101583.85;;;0.40;100.00
51526;BME280;37611;51.794;21.590;2023-02-12T04:32:17;101582.84;;;0.34;100.00
51526;BME280;37611;51.794;21.590;2023-02-12T04:36:24;101584.08;;;0.33;100.00
51526;BME280;37611;51.794;21.590;2023-02-12T04:40:27;101583.39;;;0.33;100.00
51526;BME280;37611;51.794;21.590;2023-02-12T04:44:32;101581.70;;;0.31;100.00
51526;BME280;37611;51.794;21.590;2023-02-12T04:48:36;101582.33;;;0.28;100.00
51526;BME280;37611;51.794;21.590;2023-02-12T04:52:44;101585.59;;;0.23;100.00
51526;BME280;37611;51.794;21.590;2023-02-12T04:56:46;101594.98;;;0.19;99.87
51526;BME280;37611;51.794;21.590;2023-02-12T05:00:48;101596.73;;;0.13;99.95
51526;BME280;37611;51.794;21.590;2023-02-12T05:04:50;101601.86;;;0.09;99.84
51526;BME280;37611;51.794;21.590;2023-02-12T05:08:52;101605.98;;;0.09;100.00
51526;BME280;37611;51.794;21.590;2023-02-12T05:12:54;101616.02;;;0.13;100.00
51526;BME280;37611;51.794;21.590;2023-02-12T05:16:56;101628.09;;;0.19;100.00
51526;BME280;37611;51.794;21.590;2023-02-12T05:20:59;101635.18;;;0.24;100.00
51526;BME280;37611;51.794;21.590;2023-02-12T05:25:02;101643.80;;;0.23;100.00
51526;BME280;37611;51.794;21.590;2023-02-12T05:29:04;101662.66;;;0.20;99.98
51526;BME280;37611;51.794;21.590;2023-02-12T05:33:06;101673.03;;;0.13;99.07
51526;BME280;37611;51.794;21.590;2023-02-12T05:37:08;101687.28;;;0.03;98.74
51526;BME280;37611;51.794;21.590;2023-02-12T05:41:12;101701.18;;;-0.02;97.70
51526;BME280;37611;51.794;21.590;2023-02-12T05:45:14;101713.77;;;-0.02;98.34
51526;BME280;37611;51.794;21.590;2023-02-12T05:49:16;101723.82;;;0.02;99.09
51526;BME280;37611;51.794;21.590;2023-02-12T05:53:18;101731.00;;;0.04;98.22
51526;BME280;37611;51.794;21.590;2023-02-12T05:57:19;101727.86;;;0.05;98.57
51526;BME280;37611;51.794;21.590;2023-02-12T06:01:25;101736.61;;;0.07;98.97
51526;BME280;37611;51.794;21.590;2023-02-12T06:05:27;101743.11;;;0.09;99.25
51526;BME280;37611;51.794;21.590;2023-02-12T06:09:28;101748.60;;;0.09;99.49
51526;BME280;37611;51.794;21.590;2023-02-12T06:13:30;101757.05;;;0.09;99.47
51526;BME280;37611;51.794;21.590;2023-02-12T06:17:33;101763.73;;;0.10;99.68
51526;BME280;37611;51.794;21.590;2023-02-12T06:21:35;101769.38;;;0.11;99.95
51526;BME280;37611;51.794;21.590;2023-02-12T06:25:36;101769.89;;;0.11;99.77
51526;BME280;37611;51.794;21.590;2023-02-12T06:29:38;101775.95;;;0.10;99.56
51526;BME280;37611;51.794;21.590;2023-02-12T06:33:40;101788.55;;;0.09;99.52
51526;BME280;37611;51.794;21.590;2023-02-12T06:37:42;101796.80;;;0.10;99.69
51526;BME280;37611;51.794;21.590;2023-02-12T06:41:44;101803.34;;;0.16;99.89
51526;BME280;37611;51.794;21.590;2023-02-12T06:45:45;101802.21;;;0.26;100.00
51526;BME280;37611;51.794;21.590;2023-02-12T06:49:47;101808.66;;;0.37;100.00
51526;BME280;37611;51.794;21.590;2023-02-12T06:53:51;101817.07;;;0.44;99.97
51526;BME280;37611;51.794;21.590;2023-02-12T06:57:53;101818.65;;;0.49;99.94
51526;BME280;37611;51.794;21.590;2023-02-12T07:01:56;101812.86;;;0.53;99.88
51526;BME280;37611;51.794;21.590;2023-02-12T07:05:57;101824.61;;;0.58;99.89
51526;BME280;37611;51.794;21.590;2023-02-12T07:09:59;101827.54;;;0.64;99.75
51526;BME280;37611;51.794;21.590;2023-02-12T07:14:01;101826.23;;;0.67;99.64
51526;BME280;37611;51.794;21.590;2023-02-12T07:18:03;101822.31;;;0.71;99.46
51526;BME280;37611;51.794;21.590;2023-02-12T07:22:05;101822.30;;;0.78;99.46
51526;BME280;37611;51.794;21.590;2023-02-12T07:26:10;101828.88;;;0.77;96.88
51526;BME280;37611;51.794;21.590;2023-02-12T07:30:13;101836.50;;;0.82;98.19
51526;BME280;37611;51.794;21.590;2023-02-12T07:34:15;101840.66;;;0.87;97.68
51526;BME280;37611;51.794;21.590;2023-02-12T07:38:17;101846.78;;;0.90;97.25
51526;BME280;37611;51.794;21.590;2023-02-12T07:42:19;101852.45;;;0.97;96.98
51526;BME280;37611;51.794;21.590;2023-02-12T07:50:30;101865.07;;;1.13;97.01
51526;BME280;37611;51.794;21.590;2023-02-12T07:54:31;101862.34;;;1.18;97.16
51526;BME280;37611;51.794;21.590;2023-02-12T07:58:33;101859.81;;;1.21;95.11
51526;BME280;37611;51.794;21.590;2023-02-12T08:02:35;101864.15;;;1.26;95.04
51526;BME280;37611;51.794;21.590;2023-02-12T08:06:39;101857.27;;;1.54;94.16
51526;BME280;37611;51.794;21.590;2023-02-12T08:10:42;101859.91;;;1.89;95.35
51526;BME280;37611;51.794;21.590;2023-02-12T08:14:44;101860.73;;;2.12;93.99
51526;BME280;37611;51.794;21.590;2023-02-12T08:18:46;101862.13;;;2.70;92.20
51526;BME280;37611;51.794;21.590;2023-02-12T08:22:48;101861.00;;;3.23;94.25
51526;BME280;37611;51.794;21.590;2023-02-12T08:26:51;101862.27;;;3.61;93.28
51526;BME280;37611;51.794;21.590;2023-02-12T08:30:59;101870.16;;;3.84;92.59
51526;BME280;37611;51.794;21.590;2023-02-12T08:35:00;101872.64;;;4.12;90.00
51526;BME280;37611;51.794;21.590;2023-02-12T08:39:03;101871.09;;;4.52;90.06
51526;BME280;37611;51.794;21.590;2023-02-12T08:43:05;101870.76;;;4.79;85.37
51526;BME280;37611;51.794;21.590;2023-02-12T08:47:06;101878.48;;;5.01;86.47
51526;BME280;37611;51.794;21.590;2023-02-12T08:51:18;101887.70;;;5.15;85.00
51526;BME280;37611;51.794;21.590;2023-02-12T08:55:20;101893.46;;;5.14;81.08
51526;BME280;37611;51.794;21.590;2023-02-12T08:59:22;101889.91;;;5.46;81.05
51526;BME280;37611;51.794;21.590;2023-02-12T09:03:24;101888.77;;;5.81;83.28
51526;BME280;37611;51.794;21.590;2023-02-12T09:07:26;101891.79;;;5.83;80.98
51526;BME280;37611;51.794;21.590;2023-02-12T09:11:29;101892.35;;;6.03;80.23
51526;BME280;37611;51.794;21.590;2023-02-12T09:15:44;101897.89;;;6.25;80.93
51526;BME280;37611;51.794;21.590;2023-02-12T09:19:46;101902.70;;;6.44;78.94
51526;BME280;37611;51.794;21.590;2023-02-12T09:23:49;101905.60;;;6.64;78.99
51526;BME280;37611;51.794;21.590;2023-02-12T09:27:51;101905.85;;;6.73;80.92
51526;BME280;37611;51.794;21.590;2023-02-12T09:31:53;101902.67;;;6.67;79.31
51526;BME280;37611;51.794;21.590;2023-02-12T09:35:54;101899.80;;;6.76;76.24
51526;BME280;37611;51.794;21.590;2023-02-12T09:39:56;101900.57;;;6.94;74.82
51526;BME280;37611;51.794;21.590;2023-02-12T09:44:14;101908.65;;;6.99;71.37
51526;BME280;37611;51.794;21.590;2023-02-12T09:52:47;101916.64;;;6.83;72.20
51526;BME280;37611;51.794;21.590;2023-02-12T09:56:54;101916.27;;;6.57;71.44
51526;BME280;37611;51.794;21.590;2023-02-12T10:00:57;101913.55;;;6.62;70.92
51526;BME280;37611;51.794;21.590;2023-02-12T10:05:01;101916.03;;;6.58;69.13
51526;BME280;37611;51.794;21.590;2023-02-12T10:17:46;101918.19;;;6.50;67.84
51526;BME280;37611;51.794;21.590;2023-02-12T10:21:55;101920.81;;;6.22;68.88
51526;BME280;37611;51.794;21.590;2023-02-12T10:26:11;101924.19;;;6.24;69.26
51526;BME280;37611;51.794;21.590;2023-02-12T10:30:38;101923.01;;;6.34;69.59
51526;BME280;37611;51.794;21.590;2023-02-12T10:39:37;101914.42;;;6.25;69.07
51526;BME280;37611;51.794;21.590;2023-02-12T10:43:42;101924.11;;;6.19;69.63
51526;BME280;37611;51.794;21.590;2023-02-12T10:47:46;101918.02;;;6.12;70.76
51526;BME280;37611;51.794;21.590;2023-02-12T10:52:10;101917.30;;;6.37;69.83
51526;BME280;37611;51.794;21.590;2023-02-12T10:56:22;101915.63;;;6.49;69.89
51526;BME280;37611;51.794;21.590;2023-02-12T11:00:26;101922.27;;;6.69;70.04
51526;BME280;37611;51.794;21.590;2023-02-12T11:04:32;101925.02;;;6.79;69.01
51526;BME280;37611;51.794;21.590;2023-02-12T11:08:35;101925.33;;;6.90;68.47
51526;BME280;37611;51.794;21.590;2023-02-12T11:12:41;101928.66;;;7.02;68.49
51526;BME280;37611;51.794;21.590;2023-02-12T11:16:54;101934.63;;;6.75;67.78
51526;BME280;37611;51.794;21.590;2023-02-12T11:21:09;101937.53;;;6.83;68.27
51526;BME280;37611;51.794;21.590;2023-02-12T11:25:15;101926.82;;;6.85;67.32
51526;BME280;37611;51.794;21.590;2023-02-12T11:29:22;101923.08;;;6.60;68.04
51526;BME280;37611;51.794;21.590;2023-02-12T11:33:36;101912.65;;;6.76;67.53
51526;BME280;37611;51.794;21.590;2023-02-12T11:37:43;101917.63;;;6.71;67.02
51526;BME280;37611;51.794;21.590;2023-02-12T11:41:50;101912.31;;;6.62;67.60
51526;BME280;37611;51.794;21.590;2023-02-12T11:45:54;101911.00;;;6.30;67.21
51526;BME280;37611;51.794;21.590;2023-02-12T11:50:05;101919.38;;;6.27;67.80
51526;BME280;37611;51.794;21.590;2023-02-12T11:54:18;101924.21;;;6.31;66.43
51526;BME280;37611;51.794;21.590;2023-02-12T11:58:23;101918.11;;;6.34;66.18
51526;BME280;37611;51.794;21.590;2023-02-12T12:02:33;101918.59;;;6.45;66.22
51526;BME280;37611;51.794;21.590;2023-02-12T12:06:54;101909.80;;;6.40;65.54
51526;BME280;37611;51.794;21.590;2023-02-12T12:15:14;101901.80;;;6.33;67.28
51526;BME280;37611;51.794;21.590;2023-02-12T12:19:42;101907.36;;;6.17;67.13
51526;BME280;37611;51.794;21.590;2023-02-12T12:24:02;101906.80;;;5.92;66.63
51526;BME280;37611;51.794;21.590;2023-02-12T12:32:30;101907.69;;;5.81;68.30
51526;BME280;37611;51.794;21.590;2023-02-12T12:41:02;101914.89;;;5.83;67.93
51526;BME280;37611;51.794;21.590;2023-02-12T13:12:34;101874.80;;;5.16;69.85
51526;BME280;37611;51.794;21.590;2023-02-12T13:16:59;101868.96;;;5.26;69.43
51526;BME280;37611;51.794;21.590;2023-02-12T13:29:52;101875.58;;;4.92;70.00
51526;BME280;37611;51.794;21.590;2023-02-12T13:33:59;101866.83;;;4.74;69.30
51526;BME280;37611;51.794;21.590;2023-02-12T13:38:02;101868.02;;;4.55;69.89
51526;BME280;37611;51.794;21.590;2023-02-12T13:54:44;101886.72;;;4.44;72.50
51526;BME280;37611;51.794;21.590;2023-02-12T13:58:51;101892.94;;;4.40;72.38
51526;BME280;37611;51.794;21.590;2023-02-12T14:02:54;101892.92;;;4.29;72.02
51526;BME280;37611;51.794;21.590;2023-02-12T14:07:09;101883.85;;;4.09;72.62
51526;BME280;37611;51.794;21.590;2023-02-12T14:11:18;101882.69;;;3.96;72.96
51526;BME280;37611;51.794;21.590;2023-02-12T14:15:28;101884.69;;;3.72;72.90
51526;BME280;37611;51.794;21.590;2023-02-12T14:19:38;101884.77;;;3.48;74.06
51526;BME280;37611;51.794;21.590;2023-02-12T14:23:41;101890.92;;;3.32;74.79
51526;BME280;37611;51.794;21.590;2023-02-12T14:28:05;101890.25;;;3.23;74.56
51526;BME280;37611;51.794;21.590;2023-02-12T14:37:09;101886.70;;;2.83;76.35
51526;BME280;37611;51.794;21.590;2023-02-12T14:41:21;101884.21;;;2.76;77.68
51526;BME280;37611;51.794;21.590;2023-02-12T14:45:36;101886.30;;;2.76;77.91
51526;BME280;37611;51.794;21.590;2023-02-12T14:49:46;101882.17;;;2.70;77.95
51526;BME280;37611;51.794;21.590;2023-02-12T14:53:50;101881.90;;;2.59;77.96
51526;BME280;37611;51.794;21.590;2023-02-12T14:57:57;101884.59;;;2.46;78.68
51526;BME280;37611;51.794;21.590;2023-02-12T15:02:01;101889.71;;;2.38;79.07
51526;BME280;37611;51.794;21.590;2023-02-12T15:06:20;101892.71;;;2.32;78.12
51526;BME280;37611;51.794;21.590;2023-02-12T15:10:33;101892.92;;;2.15;78.61
51526;BME280;37611;51.794;21.590;2023-02-12T15:14:42;101892.17;;;2.01;79.43
51526;BME280;37611;51.794;21.590;2023-02-12T15:19:30;101902.18;;;1.91;80.30
51526;BME280;37611;51.794;21.590;2023-02-12T15:23:47;101899.41;;;1.81;80.80
51526;BME280;37611;51.794;21.590;2023-02-12T15:27:54;101902.44;;;1.72;80.53
51526;BME280;37611;51.794;21.590;2023-02-12T15:31:58;101901.56;;;1.62;80.90
51526;BME280;37611;51.794;21.590;2023-02-12T15:36:02;101897.94;;;1.51;82.53
51526;BME280;37611;51.794;21.590;2023-02-12T15:40:05;101899.60;;;1.41;81.31
51526;BME280;37611;51.794;21.590;2023-02-12T15:44:30;101908.83;;;1.33;83.13
51526;BME280;37611;51.794;21.590;2023-02-12T15:48:34;101913.71;;;1.32;84.57
51526;BME280;37611;51.794;21.590;2023-02-12T15:52:38;101914.02;;;1.27;83.89
51526;BME280;37611;51.794;21.590;2023-02-12T15:56:41;101926.42;;;1.15;84.38
51526;BME280;37611;51.794;21.590;2023-02-12T16:00:44;101926.70;;;1.06;84.93
51526;BME280;37611;51.794;21.590;2023-02-12T16:04:48;101926.47;;;0.96;85.18
51526;BME280;37611;51.794;21.590;2023-02-12T16:13:06;101926.16;;;0.76;86.24
51526;BME280;37611;51.794;21.590;2023-02-12T16:17:29;101933.37;;;0.71;86.55
51526;BME280;37611;51.794;21.590;2023-02-12T16:21:35;101937.34;;;0.65;86.95
51526;BME280;37611;51.794;21.590;2023-02-12T16:25:39;101940.29;;;0.58;87.06
51526;BME280;37611;51.794;21.590;2023-02-12T16:29:52;101936.69;;;0.50;87.13
51526;BME280;37611;51.794;21.590;2023-02-12T16:33:55;101937.36;;;0.44;87.24
51526;BME280;37611;51.794;21.590;2023-02-12T16:42:02;101934.86;;;0.41;88.42
51526;BME280;37611;51.794;21.590;2023-02-12T16:46:05;101924.60;;;0.38;88.78
51526;BME280;37611;51.794;21.590;2023-02-12T16:50:15;101923.30;;;0.28;88.58
51526;BME280;37611;51.794;21.590;2023-02-12T16:54:26;101925.30;;;0.10;88.82
51526;BME280;37611;51.794;21.590;2023-02-12T16:58:29;101924.36;;;-0.08;89.05
51526;BME280;37611;51.794;21.590;2023-02-12T17:02:31;101922.82;;;-0.23;88.75
51526;BME280;37611;51.794;21.590;2023-02-12T17:06:34;101919.68;;;-0.36;89.57
51526;BME280;37611;51.794;21.590;2023-02-12T17:10:35;101895.14;;;-0.47;90.70
51526;BME280;37611;51.794;21.590;2023-02-12T17:14:37;101891.64;;;-0.59;90.04
51526;BME280;37611;51.794;21.590;2023-02-12T17:18:39;101893.92;;;-0.62;90.58
51526;BME280;37611;51.794;21.590;2023-02-12T17:22:45;101899.11;;;-0.71;90.16
51526;BME280;37611;51.794;21.590;2023-02-12T17:26:49;101898.35;;;-0.75;92.41
51526;BME280;37611;51.794;21.590;2023-02-12T17:30:52;101896.41;;;-0.73;93.38
51526;BME280;37611;51.794;21.590;2023-02-12T17:34:54;101899.85;;;-0.72;92.73
51526;BME280;37611;51.794;21.590;2023-02-12T17:38:55;101896.56;;;-0.72;93.28
51526;BME280;37611;51.794;21.590;2023-02-12T17:42:57;101884.52;;;-0.72;92.29
51526;BME280;37611;51.794;21.590;2023-02-12T17:46:59;101880.70;;;-0.79;93.19
51526;BME280;37611;51.794;21.590;2023-02-12T17:51:01;101885.27;;;-0.81;93.49
51526;BME280;37611;51.794;21.590;2023-02-12T17:55:03;101886.45;;;-0.82;93.77
51526;BME280;37611;51.794;21.590;2023-02-12T17:59:05;101886.86;;;-0.85;92.58
51526;BME280;37611;51.794;21.590;2023-02-12T18:03:07;101887.08;;;-0.86;93.13
51526;BME280;37611;51.794;21.590;2023-02-12T18:07:09;101893.41;;;-0.85;93.62
51526;BME280;37611;51.794;21.590;2023-02-12T18:11:11;101899.63;;;-0.79;95.14
51526;BME280;37611;51.794;21.590;2023-02-12T18:15:12;101895.48;;;-0.78;94.59
51526;BME280;37611;51.794;21.590;2023-02-12T18:19:15;101902.23;;;-0.80;96.02
51526;BME280;37611;51.794;21.590;2023-02-12T18:23:17;101894.41;;;-0.83;96.06
51526;BME280;37611;51.794;21.590;2023-02-12T18:27:19;101885.05;;;-0.88;95.40
51526;BME280;37611;51.794;21.590;2023-02-12T18:31:20;101879.27;;;-0.91;95.70
51526;BME280;37611;51.794;21.590;2023-02-12T18:35:23;101884.13;;;-0.93;96.24
51526;BME280;37611;51.794;21.590;2023-02-12T18:39:25;101887.11;;;-0.96;95.55
51526;BME280;37611;51.794;21.590;2023-02-12T18:43:26;101890.54;;;-0.95;96.47
51526;BME280;37611;51.794;21.590;2023-02-12T18:47:28;101898.83;;;-0.89;96.36
51526;BME280;37611;51.794;21.590;2023-02-12T18:51:31;101902.48;;;-0.83;96.68
51526;BME280;37611;51.794;21.590;2023-02-12T18:55:37;101903.65;;;-0.81;97.32
51526;BME280;37611;51.794;21.590;2023-02-12T18:59:39;101902.97;;;-0.81;96.99
51526;BME280;37611;51.794;21.590;2023-02-12T19:03:43;101911.09;;;-0.84;97.02
51526;BME280;37611;51.794;21.590;2023-02-12T19:07:45;101912.70;;;-0.87;96.92
51526;BME280;37611;51.794;21.590;2023-02-12T19:11:48;101915.86;;;-0.90;97.70
51526;BME280;37611;51.794;21.590;2023-02-12T19:15:50;101907.81;;;-0.91;97.78
51526;BME280;37611;51.794;21.590;2023-02-12T19:19:52;101916.95;;;-0.92;97.61
51526;BME280;37611;51.794;21.590;2023-02-12T19:23:55;101910.41;;;-0.92;98.08
51526;BME280;37611;51.794;21.590;2023-02-12T19:27:57;101907.77;;;-0.89;99.17
51526;BME280;37611;51.794;21.590;2023-02-12T19:31:59;101901.64;;;-0.84;98.95
51526;BME280;37611;51.794;21.590;2023-02-12T19:36:00;101897.63;;;-0.81;99.14
51526;BME280;37611;51.794;21.590;2023-02-12T19:40:02;101896.28;;;-0.83;99.55
51526;BME280;37611;51.794;21.590;2023-02-12T19:44:07;101894.95;;;-0.84;99.03
51526;BME280;37611;51.794;21.590;2023-02-12T19:48:10;101897.89;;;-0.85;99.46
51526;BME280;37611;51.794;21.590;2023-02-12T19:52:11;101900.74;;;-0.82;98.79
51526;BME280;37611;51.794;21.590;2023-02-12T19:56:14;101900.34;;;-0.79;99.25
51526;BME280;37611;51.794;21.590;2023-02-12T20:00:17;101892.64;;;-0.73;99.16
51526;BME280;37611;51.794;21.590;2023-02-12T20:04:21;101885.70;;;-0.63;99.97
51526;BME280;37611;51.794;21.590;2023-02-12T20:08:23;101878.39;;;-0.52;100.00
51526;BME280;37611;51.794;21.590;2023-02-12T20:12:24;101872.41;;;-0.39;100.00
51526;BME280;37611;51.794;21.590;2023-02-12T20:16:28;101882.41;;;-0.25;100.00
51526;BME280;37611;51.794;21.590;2023-02-12T20:20:33;101879.05;;;-0.14;100.00
51526;BME280;37611;51.794;21.590;2023-02-12T20:24:35;101882.01;;;-0.08;100.00
51526;BME280;37611;51.794;21.590;2023-02-12T20:28:37;101876.30;;;-0.01;100.00
51526;BME280;37611;51.794;21.590;2023-02-12T20:32:39;101868.41;;;0.05;99.95
51526;BME280;37611;51.794;21.590;2023-02-12T20:36:43;101859.59;;;0.07;99.95
51526;BME280;37611;51.794;21.590;2023-02-12T20:40:46;101850.13;;;0.06;100.00
51526;BME280;37611;51.794;21.590;2023-02-12T20:44:48;101837.20;;;0.13;100.00
51526;BME280;37611;51.794;21.590;2023-02-12T20:48:50;101836.91;;;0.24;100.00
51526;BME280;37611;51.794;21.590;2023-02-12T20:52:52;101828.85;;;0.35;100.00
51526;BME280;37611;51.794;21.590;2023-02-12T20:56:54;101830.65;;;0.45;100.00
51526;BME280;37611;51.794;21.590;2023-02-12T21:01:10;101833.80;;;0.50;100.00
51526;BME280;37611;51.794;21.590;2023-02-12T21:05:13;101833.19;;;0.53;100.00
51526;BME280;37611;51.794;21.590;2023-02-12T21:09:15;101829.16;;;0.56;100.00
51526;BME280;37611;51.794;21.590;2023-02-12T21:13:19;101829.77;;;0.58;100.00
51526;BME280;37611;51.794;21.590;2023-02-12T21:17:21;101823.83;;;0.61;100.00
51526;BME280;37611;51.794;21.590;2023-02-12T21:21:33;101817.60;;;0.68;100.00
51526;BME280;37611;51.794;21.590;2023-02-12T21:25:35;101810.67;;;0.75;100.00
51526;BME280;37611;51.794;21.590;2023-02-12T21:29:37;101807.77;;;0.80;100.00
51526;BME280;37611;51.794;21.590;2023-02-12T21:33:40;101804.63;;;0.87;100.00
51526;BME280;37611;51.794;21.590;2023-02-12T21:37:42;101800.90;;;0.90;100.00
51526;BME280;37611;51.794;21.590;2023-02-12T21:41:44;101793.92;;;0.93;100.00
51526;BME280;37611;51.794;21.590;2023-02-12T21:45:50;101791.95;;;0.90;100.00
51526;BME280;37611;51.794;21.590;2023-02-12T21:49:52;101783.88;;;0.88;100.00
51526;BME280;37611;51.794;21.590;2023-02-12T21:53:56;101788.05;;;0.87;100.00
51526;BME280;37611;51.794;21.590;2023-02-12T21:57:58;101791.16;;;0.93;100.00
51526;BME280;37611;51.794;21.590;2023-02-12T22:02:02;101784.98;;;0.97;100.00
51526;BME280;37611;51.794;21.590;2023-02-12T22:06:07;101782.18;;;0.99;100.00
51526;BME280;37611;51.794;21.590;2023-02-12T22:10:09;101779.34;;;1.07;100.00
51526;BME280;37611;51.794;21.590;2023-02-12T22:14:14;101758.15;;;1.12;100.00
51526;BME280;37611;51.794;21.590;2023-02-12T22:18:17;101754.55;;;1.11;100.00
51526;BME280;37611;51.794;21.590;2023-02-12T22:22:18;101759.14;;;1.08;100.00
51526;BME280;37611;51.794;21.590;2023-02-12T22:26:25;101758.39;;;1.10;100.00
51526;BME280;37611;51.794;21.590;2023-02-12T22:30:27;101759.52;;;1.12;100.00
51526;BME280;37611;51.794;21.590;2023-02-12T22:34:28;101756.64;;;1.16;100.00
51526;BME280;37611;51.794;21.590;2023-02-12T22:38:32;101755.74;;;1.22;100.00
51526;BME280;37611;51.794;21.590;2023-02-12T22:42:34;101754.17;;;1.28;100.00
51526;BME280;37611;51.794;21.590;2023-02-12T22:46:37;101749.96;;;1.36;100.00
51526;BME280;37611;51.794;21.590;2023-02-12T22:50:38;101745.60;;;1.42;100.00
51526;BME280;37611;51.794;21.590;2023-02-12T22:54:40;101745.32;;;1.45;100.00
51526;BME280;37611;51.794;21.590;2023-02-12T22:58:42;101740.31;;;1.51;100.00
51526;BME280;37611;51.794;21.590;2023-02-12T23:02:45;101736.84;;;1.46;100.00
51526;BME280;37611;51.794;21.590;2023-02-12T23:06:47;101730.58;;;1.47;100.00
51526;BME280;37611;51.794;21.590;2023-02-12T23:10:48;101727.06;;;1.55;100.00